Time;durP1;ratioP1;P1;durP2;ratioP2;P2;SDS_P1;SDS_P2;PMS_P1;PMS_P2;Temp;Humidity;BMP_temperature;BMP_pressure;BME280_temperature;BME280_humidity;BME280_pressure;Samples;Min_cycle;Max_cycle;Signal;HPM_P1;HPM_P2
2023/07/04 00:01:00;;;;;;;8.35;3.17;;;;;;;;;;5017201;28;20046;-76
2023/07/04 00:03:30;;;;;;;7.35;2.83;;;;;;;;;;5017571;28;20456;-76
2023/07/04 00:05:56;;;;;;;8.52;3.10;;;;;;;;;;5017563;28;20053;-76
2023/07/04 00:08:26;;;;;;;8.95;2.85;;;;;;;;;;5017185;28;20046;-76
2023/07/04 00:10:52;;;;;;;13.57;3.20;;;;;;;;;;5016904;28;20574;-76
2023/07/04 00:13:19;;;;;;;5.30;2.80;;;;;;;;;;5017151;28;20201;-77
2023/07/04 00:15:45;;;;;;;8.68;3.38;;;;;;;;;;5024844;28;20402;-76
2023/07/04 00:18:12;;;;;;;5.82;2.88;;;;;;;;;;5036815;28;20052;-76
2023/07/04 00:20:38;;;;;;;7.03;3.00;;;;;;;;;;5036404;28;20494;-77
2023/07/04 00:23:04;;;;;;;4.53;2.63;;;;;;;;;;5036973;28;20046;-77
2023/07/04 00:25:31;;;;;;;6.80;3.20;;;;;;;;;;5036304;28;20053;-76
2023/07/04 00:27:57;;;;;;;10.02;3.35;;;;;;;;;;5036819;28;20057;-76
2023/07/04 00:30:25;;;;;;;7.03;2.92;;;;;;;;;;5036955;28;20049;-76
2023/07/04 00:32:51;;;;;;;6.15;3.17;;;;;;;;;;5036606;28;20060;-76
2023/07/04 00:35:17;;;;;;;5.22;3.05;;;;;;;;;;5036825;28;20041;-77
2023/07/04 00:37:44;;;;;;;7.22;2.90;;;;;;;;;;5038917;28;20067;-76
2023/07/04 00:40:12;;;;;;;7.85;3.22;;;;;;;;;;5036080;28;20053;-77
2023/07/04 00:42:38;;;;;;;6.50;2.83;;;;;;;;;;5036811;28;20049;-76
2023/07/04 00:45:21;;;;;;;8.68;3.42;;;;;;;;;;5037214;28;20052;-76
2023/07/04 00:47:56;;;;;;;6.47;3.28;;;;;;;;;;5036622;28;20050;-77
2023/07/04 00:50:27;;;;;;;9.57;3.63;;;;;;;;;;5036092;28;20038;-76
2023/07/04 00:52:57;;;;;;;5.88;2.83;;;;;;;;;;5036253;28;20046;-76
2023/07/04 00:55:23;;;;;;;6.10;2.88;;;;;;;;;;5035829;28;20045;-76
2023/07/04 00:57:49;;;;;;;5.90;2.80;;;;;;;;;;5036090;28;20049;-76
2023/07/04 01:00:18;;;;;;;5.25;3.25;;;;;;;;;;5036193;28;20049;-77
2023/07/04 01:02:45;;;;;;;4.53;2.70;;;;;;;;;;5036389;28;20049;-76
2023/07/04 01:05:12;;;;;;;7.93;3.00;;;;;;;;;;5037602;28;20147;-76
2023/07/04 01:07:38;;;;;;;11.23;3.33;;;;;;;;;;5035424;28;20052;-76
2023/07/04 01:10:10;;;;;;;6.63;3.13;;;;;;;;;;5034052;28;20045;-76
2023/07/04 01:12:37;;;;;;;8.35;3.10;;;;;;;;;;5035547;28;20522;-76
2023/07/04 01:15:03;;;;;;;6.43;3.30;;;;;;;;;;5035829;28;20084;-76
2023/07/04 01:17:30;;;;;;;6.25;3.10;;;;;;;;;;5035622;28;20104;-76
2023/07/04 01:19:57;;;;;;;7.97;3.20;;;;;;;;;;5035707;28;20037;-76
2023/07/04 01:22:35;;;;;;;7.13;3.03;;;;;;;;;;5035282;28;20073;-76
2023/07/04 01:25:08;;;;;;;7.55;2.67;;;;;;;;;;5035136;28;20041;-76
2023/07/04 01:27:38;;;;;;;5.78;2.50;;;;;;;;;;5035643;28;20420;-76
2023/07/04 01:30:08;;;;;;;9.25;3.13;;;;;;;;;;5035306;28;20038;-76
2023/07/04 01:32:35;;;;;;;5.38;2.60;;;;;;;;;;5035413;28;20546;-76
2023/07/04 01:35:02;;;;;;;5.32;2.55;;;;;;;;;;5035106;28;20072;-76
2023/07/04 01:37:32;;;;;;;4.72;2.50;;;;;;;;;;5034990;28;20049;-76
2023/07/04 01:39:58;;;;;;;8.05;3.00;;;;;;;;;;5035494;28;20049;-76
2023/07/04 01:42:30;;;;;;;6.13;2.88;;;;;;;;;;5035565;28;20050;-76
2023/07/04 01:44:57;;;;;;;6.63;2.97;;;;;;;;;;5035245;28;20045;-77
2023/07/04 01:47:23;;;;;;;5.35;2.97;;;;;;;;;;5017033;28;20084;-77
2023/07/04 01:49:49;;;;;;;4.70;3.20;;;;;;;;;;5034164;28;20041;-77
2023/07/04 01:52:15;;;;;;;10.05;3.97;;;;;;;;;;5035036;28;20038;-77
2023/07/04 01:54:41;;;;;;;6.63;2.90;;;;;;;;;;5033617;28;20041;-77
2023/07/04 01:57:10;;;;;;;8.20;3.20;;;;;;;;;;5033373;28;20399;-77
2023/07/04 01:59:36;;;;;;;7.30;3.50;;;;;;;;;;5035093;28;20049;-77
2023/07/04 02:02:02;;;;;;;7.10;3.08;;;;;;;;;;5035170;28;20044;-76
2023/07/04 02:04:28;;;;;;;9.18;3.65;;;;;;;;;;5034800;28;20042;-77
2023/07/04 02:06:54;;;;;;;6.90;3.58;;;;;;;;;;5034328;28;20057;-77
2023/07/04 02:09:21;;;;;;;8.00;3.28;;;;;;;;;;5034481;28;20119;-77
2023/07/04 02:11:47;;;;;;;5.70;3.13;;;;;;;;;;5034281;28;20057;-77
2023/07/04 02:14:14;;;;;;;6.35;3.10;;;;;;;;;;5033513;28;20045;-77
2023/07/04 02:16:40;;;;;;;7.75;3.00;;;;;;;;;;5034418;28;20087;-77
2023/07/04 02:19:06;;;;;;;8.90;2.90;;;;;;;;;;5034766;28;20121;-76
2023/07/04 02:21:32;;;;;;;8.35;3.05;;;;;;;;;;5033005;28;20141;-76
2023/07/04 02:23:58;;;;;;;5.35;3.55;;;;;;;;;;5016454;28;20065;-77
2023/07/04 02:26:24;;;;;;;8.00;3.20;;;;;;;;;;5033925;28;20396;-76
2023/07/04 02:28:50;;;;;;;5.18;2.97;;;;;;;;;;5034350;28;20060;-76
2023/07/04 02:31:16;;;;;;;8.85;3.22;;;;;;;;;;5038656;28;20095;-76
2023/07/04 02:33:42;;;;;;;6.68;2.90;;;;;;;;;;5039855;28;20539;-77
2023/07/04 02:36:11;;;;;;;6.10;3.05;;;;;;;;;;5038194;28;20045;-77
2023/07/04 02:38:38;;;;;;;7.70;3.25;;;;;;;;;;5034847;28;20045;-77
2023/07/04 02:41:04;;;;;;;7.28;2.97;;;;;;;;;;5034037;28;20037;-76
2023/07/04 02:43:30;;;;;;;6.45;2.92;;;;;;;;;;5033984;28;20051;-75
2023/07/04 02:45:56;;;;;;;6.40;3.10;;;;;;;;;;5034222;28;20045;-75
2023/07/04 02:48:24;;;;;;;7.53;3.10;;;;;;;;;;5034399;28;20037;-75
2023/07/04 02:50:50;;;;;;;6.43;3.17;;;;;;;;;;5033410;28;20496;-76
2023/07/04 02:53:21;;;;;;;6.80;2.78;;;;;;;;;;5033581;28;20546;-76
2023/07/04 02:55:47;;;;;;;5.03;2.60;;;;;;;;;;5032207;28;20049;-76
2023/07/04 02:58:14;;;;;;;5.18;3.00;;;;;;;;;;5033807;28;20095;-76
2023/07/04 03:00:40;;;;;;;5.68;2.72;;;;;;;;;;5033846;28;20045;-76
2023/07/04 03:03:07;;;;;;;6.82;2.92;;;;;;;;;;5033649;28;20063;-76
2023/07/04 03:05:33;;;;;;;7.60;2.50;;;;;;;;;;5033404;28;20041;-75
2023/07/04 03:07:59;;;;;;;8.60;2.97;;;;;;;;;;5033646;28;20064;-76
2023/07/04 03:10:25;;;;;;;6.35;2.22;;;;;;;;;;5033541;28;20095;-76
2023/07/04 03:12:51;;;;;;;3.85;2.55;;;;;;;;;;5033355;28;20095;-75
2023/07/04 03:15:17;;;;;;;5.00;2.90;;;;;;;;;;5032131;28;20200;-75
2023/07/04 03:17:44;;;;;;;7.22;2.55;;;;;;;;;;5033909;28;20049;-75
2023/07/04 03:20:11;;;;;;;5.90;2.42;;;;;;;;;;5032869;28;20088;-75
2023/07/04 03:22:38;;;;;;;7.22;2.35;;;;;;;;;;5033329;28;20049;-75
2023/07/04 03:25:04;;;;;;;4.50;2.10;;;;;;;;;;5033338;28;20046;-75
2023/07/04 03:27:30;;;;;;;4.93;2.30;;;;;;;;;;5033426;28;20481;-76
2023/07/04 03:29:56;;;;;;;7.63;2.30;;;;;;;;;;5033622;28;20071;-76
2023/07/04 03:32:22;;;;;;;4.32;2.22;;;;;;;;;;5032896;28;20046;-76
2023/07/04 03:34:48;;;;;;;9.05;2.50;;;;;;;;;;5033715;28;20052;-76
2023/07/04 03:37:15;;;;;;;5.07;2.22;;;;;;;;;;5033195;28;20045;-76
2023/07/04 03:39:41;;;;;;;8.65;2.47;;;;;;;;;;5033451;28;20128;-76
2023/07/04 03:42:07;;;;;;;5.05;2.40;;;;;;;;;;5031871;28;20052;-77
2023/07/04 03:44:33;;;;;;;5.00;2.08;;;;;;;;;;5033084;28;20050;-76
2023/07/04 03:46:59;;;;;;;4.28;2.45;;;;;;;;;;5032761;28;20052;-76
2023/07/04 03:49:26;;;;;;;3.85;2.00;;;;;;;;;;5033179;28;20052;-76
2023/07/04 03:51:52;;;;;;;7.47;2.50;;;;;;;;;;5033187;28;20072;-76
2023/07/04 03:54:18;;;;;;;2.92;1.65;;;;;;;;;;5033340;28;20049;-76
2023/07/04 03:56:44;;;;;;;7.07;2.33;;;;;;;;;;5032697;28;20041;-77
2023/07/04 03:59:10;;;;;;;4.30;2.20;;;;;;;;;;5033091;28;20124;-77
2023/07/04 04:01:37;;;;;;;4.82;2.00;;;;;;;;;;5032870;28;20041;-77
2023/07/04 04:04:03;;;;;;;4.75;1.90;;;;;;;;;;5033171;28;20073;-77
2023/07/04 04:06:29;;;;;;;5.05;1.98;;;;;;;;;;5032663;28;20081;-77
2023/07/04 04:08:55;;;;;;;5.28;1.92;;;;;;;;;;5033019;28;20046;-76
2023/07/04 04:11:40;;;;;;;6.57;1.92;;;;;;;;;;5032825;28;20458;-77
2023/07/04 04:14:24;;;;;;;7.18;2.10;;;;;;;;;;5032922;28;20064;-76
2023/07/04 04:16:50;;;;;;;5.25;2.00;;;;;;;;;;5032788;28;20118;-76
2023/07/04 04:19:16;;;;;;;7.70;2.20;;;;;;;;;;5031492;28;20506;-77
2023/07/04 04:21:42;;;;;;;6.57;2.10;;;;;;;;;;5031692;28;20051;-77
2023/07/04 04:24:08;;;;;;;5.28;2.28;;;;;;;;;;5032886;28;20064;-77
2023/07/04 04:26:38;;;;;;;4.80;1.92;;;;;;;;;;5030586;28;20053;-77
2023/07/04 04:29:05;;;;;;;7.15;2.00;;;;;;;;;;5032774;28;20464;-76
2023/07/04 04:31:37;;;;;;;4.32;2.13;;;;;;;;;;5032694;28;20041;-77
2023/07/04 04:34:03;;;;;;;7.18;2.30;;;;;;;;;;5031246;28;20124;-76
2023/07/04 04:36:30;;;;;;;5.40;2.10;;;;;;;;;;5032615;28;20054;-76
2023/07/04 04:38:56;;;;;;;4.47;1.92;;;;;;;;;;5032095;28;20486;-77
2023/07/04 04:41:22;;;;;;;2.78;1.90;;;;;;;;;;5032263;28;20115;-76
2023/07/04 04:43:49;;;;;;;4.65;1.88;;;;;;;;;;5035119;28;20052;-77
2023/07/04 04:46:16;;;;;;;5.93;1.90;;;;;;;;;;5035895;28;20053;-77
2023/07/04 04:48:42;;;;;;;6.22;1.98;;;;;;;;;;5036058;28;20472;-77
2023/07/04 04:51:12;;;;;;;3.92;2.03;;;;;;;;;;5035874;28;20053;-77
2023/07/04 04:53:39;;;;;;;6.03;2.17;;;;;;;;;;5036100;28;20458;-77
2023/07/04 04:56:06;;;;;;;5.70;2.10;;;;;;;;;;5035768;28;20053;-77
2023/07/04 04:58:32;;;;;;;4.90;2.00;;;;;;;;;;5036186;28;20042;-77
2023/07/04 05:01:06;;;;;;;3.38;1.95;;;;;;;;;;5035809;28;20484;-77
2023/07/04 05:03:32;;;;;;;5.68;2.03;;;;;;;;;;5036092;28;20128;-77
2023/07/04 05:06:02;;;;;;;5.55;2.20;;;;;;;;;;5035537;28;20068;-77
2023/07/04 05:08:28;;;;;;;7.03;1.92;;;;;;;;;;5035841;28;20115;-77
2023/07/04 05:10:58;;;;;;;7.53;2.17;;;;;;;;;;5035517;28;20045;-78
2023/07/04 05:13:24;;;;;;;4.28;2.10;;;;;;;;;;5035634;28;20434;-77
2023/07/04 05:15:58;;;;;;;5.88;2.70;;;;;;;;;;5035327;28;20566;-77
2023/07/04 05:18:24;;;;;;;5.78;2.55;;;;;;;;;;5035833;28;20052;-77
2023/07/04 05:20:59;;;;;;;5.13;1.90;;;;;;;;;;5035451;28;20183;-77
2023/07/04 05:23:25;;;;;;;6.03;2.45;;;;;;;;;;5035875;28;20041;-78
2023/07/04 05:25:58;;;;;;;6.30;2.60;;;;;;;;;;5034760;28;20400;-77
2023/07/04 05:28:24;;;;;;;5.30;2.42;;;;;;;;;;5035957;28;20132;-77
2023/07/04 05:30:56;;;;;;;6.70;1.92;;;;;;;;;;5035502;28;20160;-77
2023/07/04 05:33:23;;;;;;;5.13;2.10;;;;;;;;;;5035365;28;20068;-77
2023/07/04 05:35:49;;;;;;;5.30;2.20;;;;;;;;;;5035578;28;20054;-77
2023/07/04 05:38:15;;;;;;;9.48;2.25;;;;;;;;;;5035192;28;20551;-77
2023/07/04 05:40:41;;;;;;;4.20;2.08;;;;;;;;;;5035222;28;20041;-77
2023/07/04 05:43:07;;;;;;;5.35;2.00;;;;;;;;;;5035125;28;20041;-77
2023/07/04 05:45:33;;;;;;;6.32;2.10;;;;;;;;;;5034808;28;20125;-77
2023/07/04 05:47:59;;;;;;;7.82;2.05;;;;;;;;;;5033699;28;20179;-77
2023/07/04 05:50:25;;;;;;;6.32;2.45;;;;;;;;;;5035153;28;20141;-77
2023/07/04 05:52:51;;;;;;;7.35;2.25;;;;;;;;;;5035343;28;20060;-77
2023/07/04 05:55:17;;;;;;;5.60;1.98;;;;;;;;;;5025825;28;20041;-77
2023/07/04 05:57:43;;;;;;;6.35;2.10;;;;;;;;;;5015302;28;20042;-78
2023/07/04 06:00:10;;;;;;;4.22;2.10;;;;;;;;;;5014781;28;20045;-78
2023/07/04 06:02:39;;;;;;;3.72;1.92;;;;;;;;;;5018642;28;20132;-77
2023/07/04 06:05:05;;;;;;;6.38;2.35;;;;;;;;;;5020809;28;20041;-77
2023/07/04 06:07:32;;;;;;;4.53;2.25;;;;;;;;;;5019520;28;20058;-77
2023/07/04 06:09:58;;;;;;;4.00;1.83;;;;;;;;;;5015726;28;20038;-77
2023/07/04 06:12:24;;;;;;;4.68;1.90;;;;;;;;;;5015121;28;20133;-77
2023/07/04 06:14:50;;;;;;;7.43;2.42;;;;;;;;;;5015169;28;20378;-77
2023/07/04 06:17:16;;;;;;;10.25;2.75;;;;;;;;;;5034415;28;20049;-77
2023/07/04 06:19:42;;;;;;;3.85;2.03;;;;;;;;;;5034790;28;20375;-77
2023/07/04 06:22:08;;;;;;;4.97;1.70;;;;;;;;;;5034147;28;20155;-76
2023/07/04 06:24:36;;;;;;;5.00;1.90;;;;;;;;;;5034580;28;20468;-78
2023/07/04 06:27:04;;;;;;;5.05;1.95;;;;;;;;;;5034020;28;20050;-78
2023/07/04 06:29:31;;;;;;;7.30;2.08;;;;;;;;;;5034564;28;20113;-77
2023/07/04 06:31:57;;;;;;;3.83;1.90;;;;;;;;;;5034131;28;20041;-77
2023/07/04 06:34:23;;;;;;;6.28;1.98;;;;;;;;;;5032993;28;20051;-77
2023/07/04 06:36:49;;;;;;;7.38;1.83;;;;;;;;;;5033929;28;20049;-78
2023/07/04 06:39:15;;;;;;;6.07;1.95;;;;;;;;;;5034055;28;20042;-77
2023/07/04 06:41:41;;;;;;;8.55;1.80;;;;;;;;;;5033733;28;20205;-77
2023/07/04 06:44:07;;;;;;;6.18;2.13;;;;;;;;;;5034496;28;20046;-77
2023/07/04 06:46:33;;;;;;;5.30;2.10;;;;;;;;;;5033730;28;20099;-76
2023/07/04 06:48:59;;;;;;;6.47;2.05;;;;;;;;;;5033798;28;20045;-77
2023/07/04 06:51:29;;;;;;;7.20;2.22;;;;;;;;;;5033906;28;20048;-77
2023/07/04 06:53:55;;;;;;;5.40;1.85;;;;;;;;;;5033893;28;20060;-77
2023/07/04 06:56:22;;;;;;;5.75;2.10;;;;;;;;;;5016482;28;20084;-77
2023/07/04 06:58:53;;;;;;;6.05;2.17;;;;;;;;;;5014388;28;20057;-77
2023/07/04 07:01:22;;;;;;;4.75;1.77;;;;;;;;;;5014004;28;20367;-77
2023/07/04 07:03:49;;;;;;;4.78;1.85;;;;;;;;;;5013763;28;20049;-77
2023/07/04 07:06:15;;;;;;;5.45;1.80;;;;;;;;;;5012810;28;20042;-77
2023/07/04 07:08:42;;;;;;;4.68;2.38;;;;;;;;;;5013383;28;20046;-77
2023/07/04 07:11:09;;;;;;;5.30;1.98;;;;;;;;;;5013388;28;20480;-77
2023/07/04 07:13:35;;;;;;;5.53;2.00;;;;;;;;;;5012519;28;20050;-78
2023/07/04 07:16:07;;;;;;;5.57;1.90;;;;;;;;;;5023691;28;20072;-78
2023/07/04 07:18:34;;;;;;;3.85;1.80;;;;;;;;;;5032364;28;20042;-77
2023/07/04 07:21:04;;;;;;;5.45;1.90;;;;;;;;;;5033380;28;20045;-78
2023/07/04 07:23:34;;;;;;;5.72;1.80;;;;;;;;;;5033434;28;20076;-77
2023/07/04 07:26:01;;;;;;;4.32;2.15;;;;;;;;;;5032814;28;20050;-77
2023/07/04 07:28:28;;;;;;;5.28;2.00;;;;;;;;;;5033696;28;20049;-77
2023/07/04 07:31:09;;;;;;;5.82;2.35;;;;;;;;;;5033291;28;20037;-78
2023/07/04 07:33:37;;;;;;;6.45;2.05;;;;;;;;;;5033449;28;20045;-78
2023/07/04 07:36:18;;;;;;;5.05;2.20;;;;;;;;;;5031984;28;20368;-77
2023/07/04 07:38:44;;;;;;;4.72;2.30;;;;;;;;;;5033330;28;20480;-77
2023/07/04 07:41:10;;;;;;;5.47;2.17;;;;;;;;;;5032899;28;20553;-77
2023/07/04 07:43:38;;;;;;;4.20;1.75;;;;;;;;;;5033164;28;20049;-77
2023/07/04 07:46:07;;;;;;;5.05;2.13;;;;;;;;;;5032769;28;20236;-77
2023/07/04 07:48:33;;;;;;;5.63;1.90;;;;;;;;;;5033290;28;20080;-77
2023/07/04 07:50:59;;;;;;;5.43;2.20;;;;;;;;;;5032929;28;20436;-77
2023/07/04 07:53:25;;;;;;;6.30;2.25;;;;;;;;;;5033274;28;20124;-77
2023/07/04 07:55:51;;;;;;;7.10;2.28;;;;;;;;;;5019429;28;20459;-78
2023/07/04 07:58:17;;;;;;;4.82;2.28;;;;;;;;;;5013405;28;20038;-77
2023/07/04 08:00:44;;;;;;;6.40;2.20;;;;;;;;;;5013020;28;20400;-77
2023/07/04 08:03:10;;;;;;;3.50;2.33;;;;;;;;;;5013055;28;20042;-77
2023/07/04 08:05:40;;;;;;;3.97;2.05;;;;;;;;;;5012969;28;20479;-77
2023/07/04 08:08:06;;;;;;;3.97;2.03;;;;;;;;;;5013231;28;20420;-77
2023/07/04 08:10:38;;;;;;;6.88;2.25;;;;;;;;;;5013038;28;20077;-77
2023/07/04 08:13:04;;;;;;;6.45;2.08;;;;;;;;;;5013184;28;20518;-77
2023/07/04 08:15:31;;;;;;;5.32;2.30;;;;;;;;;;5019381;28;20103;-77
2023/07/04 08:17:57;;;;;;;4.93;2.17;;;;;;;;;;5034385;28;20045;-77
2023/07/04 08:20:23;;;;;;;7.60;2.50;;;;;;;;;;5036542;28;20091;-77
2023/07/04 08:22:49;;;;;;;6.90;2.90;;;;;;;;;;5036916;28;20065;-77
2023/07/04 08:25:15;;;;;;;8.25;2.42;;;;;;;;;;5036596;28;20136;-78
2023/07/04 08:27:41;;;;;;;5.03;2.10;;;;;;;;;;5036686;28;20060;-78
2023/07/04 08:30:08;;;;;;;6.75;2.25;;;;;;;;;;5036711;28;20148;-77
2023/07/04 08:32:34;;;;;;;4.78;2.33;;;;;;;;;;5036506;28;20504;-77
2023/07/04 08:35:00;;;;;;;5.82;2.20;;;;;;;;;;5036892;28;20049;-77
2023/07/04 08:37:26;;;;;;;6.07;2.33;;;;;;;;;;5035427;28;20045;-77
2023/07/04 08:39:53;;;;;;;4.95;2.40;;;;;;;;;;5036644;28;20542;-78
2023/07/04 08:42:21;;;;;;;5.50;2.38;;;;;;;;;;5035894;28;20104;-78
2023/07/04 08:44:49;;;;;;;7.78;2.58;;;;;;;;;;5036498;28;20052;-77
2023/07/04 08:47:17;;;;;;;5.20;2.40;;;;;;;;;;5035828;28;20049;-78
2023/07/04 08:49:49;;;;;;;6.95;2.88;;;;;;;;;;5036368;28;20046;-77
2023/07/04 08:52:32;;;;;;;8.15;2.45;;;;;;;;;;5036479;28;20045;-77
2023/07/04 08:54:58;;;;;;;9.60;3.08;;;;;;;;;;5036433;28;20050;-77
2023/07/04 08:57:42;;;;;;;6.30;2.60;;;;;;;;;;5035981;28;20042;-77
2023/07/04 09:00:35;;;;;;;5.30;2.20;;;;;;;;;;5035897;28;20498;-77
2023/07/04 09:03:07;;;;;;;5.82;1.88;;;;;;;;;;5035011;28;20128;-77
2023/07/04 09:05:44;;;;;;;5.47;2.00;;;;;;;;;;5035862;28;20072;-77
2023/07/04 09:08:16;;;;;;;3.90;2.03;;;;;;;;;;5036323;28;20037;-77
2023/07/04 09:10:44;;;;;;;3.78;1.90;;;;;;;;;;5036126;28;20072;-77
2023/07/04 09:13:12;;;;;;;4.13;1.92;;;;;;;;;;5035866;28;20079;-77
2023/07/04 09:15:44;;;;;;;5.20;2.03;;;;;;;;;;5035993;28;20049;-77
2023/07/04 09:18:28;;;;;;;6.43;2.05;;;;;;;;;;5035707;28;20049;-77
2023/07/04 09:21:20;;;;;;;4.97;2.03;;;;;;;;;;5035281;28;20042;-77
2023/07/04 09:23:47;;;;;;;7.05;2.20;;;;;;;;;;5034249;28;20487;-78
2023/07/04 09:26:21;;;;;;;7.75;2.47;;;;;;;;;;5035038;28;20396;-77
2023/07/04 09:28:51;;;;;;;5.97;2.03;;;;;;;;;;5034711;28;20124;-78
2023/07/04 09:31:18;;;;;;;7.80;2.63;;;;;;;;;;5035439;28;20046;-78
2023/07/04 09:33:44;;;;;;;5.22;2.05;;;;;;;;;;5035715;28;20061;-77
2023/07/04 09:36:11;;;;;;;5.57;2.03;;;;;;;;;;5035189;28;20124;-77
2023/07/04 09:38:52;;;;;;;5.57;2.40;;;;;;;;;;5039541;28;20049;-77
2023/07/04 09:41:19;;;;;;;5.50;1.80;;;;;;;;;;5040075;28;20480;-77
2023/07/04 09:43:45;;;;;;;6.38;2.42;;;;;;;;;;5038338;28;20120;-77
2023/07/04 09:46:28;;;;;;;3.72;1.80;;;;;;;;;;5034917;28;20099;-77
2023/07/04 09:48:55;;;;;;;5.72;2.00;;;;;;;;;;5034785;28;20047;-77
2023/07/04 09:51:24;;;;;;;5.38;2.03;;;;;;;;;;5034730;28;20073;-77
2023/07/04 09:53:51;;;;;;;6.97;2.25;;;;;;;;;;5034933;28;20060;-77
2023/07/04 09:56:27;;;;;;;6.82;2.05;;;;;;;;;;5034937;28;20045;-77
2023/07/04 09:59:19;;;;;;;7.45;2.35;;;;;;;;;;5034838;28;20384;-78
2023/07/04 10:01:49;;;;;;;4.75;2.55;;;;;;;;;;5033278;28;20052;-79
2023/07/04 10:04:33;;;;;;;5.55;2.00;;;;;;;;;;5034783;28;20042;-77
2023/07/04 10:06:59;;;;;;;5.93;1.83;;;;;;;;;;5034498;28;20049;-77
2023/07/04 10:09:26;;;;;;;6.38;2.00;;;;;;;;;;5035045;28;20041;-77
2023/07/04 10:11:53;;;;;;;4.43;2.05;;;;;;;;;;5034603;28;20435;-77
2023/07/04 10:14:32;;;;;;;5.22;2.00;;;;;;;;;;5034307;28;20052;-77
2023/07/04 10:17:07;;;;;;;3.33;1.90;;;;;;;;;;5034472;28;20091;-77
2023/07/04 10:19:33;;;;;;;;;;;;;;;;;;5035099;28;20118;-77
2023/07/04 10:21:59;;;;;;;6.32;2.00;;;;;;;;;;5034647;28;20306;-77
2023/07/04 10:24:26;;;;;;;5.10;2.15;;;;;;;;;;5034548;28;20049;-77
2023/07/04 10:26:54;;;;;;;5.15;2.03;;;;;;;;;;5033934;28;20377;-77
2023/07/04 10:29:26;;;;;;;6.97;2.33;;;;;;;;;;5034229;28;20041;-77
2023/07/04 10:31:52;;;;;;;6.88;2.33;;;;;;;;;;5034393;28;20121;-77
2023/07/04 10:34:20;;;;;;;5.30;2.20;;;;;;;;;;5034162;28;20056;-77
2023/07/04 10:36:49;;;;;;;4.47;2.20;;;;;;;;;;5034427;28;20045;-79
2023/07/04 10:39:16;;;;;;;5.00;2.03;;;;;;;;;;5032937;28;20057;-77
2023/07/04 10:42:01;;;;;;;4.43;2.08;;;;;;;;;;5033572;28;20056;-78
2023/07/04 10:44:29;;;;;;;8.35;2.40;;;;;;;;;;5033841;28;20376;-78
2023/07/04 10:47:00;;;;;;;9.70;2.75;;;;;;;;;;5034251;28;20049;-78
2023/07/04 10:49:28;;;;;;;6.78;2.20;;;;;;;;;;5033729;28;20089;-77
2023/07/04 10:51:58;;;;;;;6.68;2.20;;;;;;;;;;5033619;28;20052;-77
2023/07/04 10:54:24;;;;;;;6.03;2.42;;;;;;;;;;5034225;28;20129;-77
2023/07/04 10:56:52;;;;;;;4.93;2.05;;;;;;;;;;5033819;28;20080;-77
2023/07/04 10:59:29;;;;;;;7.10;2.22;;;;;;;;;;5033847;28;20507;-77
2023/07/04 11:02:16;;;;;;;6.32;2.40;;;;;;;;;;5033743;28;20045;-77
2023/07/04 11:04:42;;;;;;;5.25;2.20;;;;;;;;;;5033870;28;20120;-77
2023/07/04 11:07:22;;;;;;;4.28;2.05;;;;;;;;;;5033019;28;20487;-77
2023/07/04 11:09:51;;;;;;;6.78;2.25;;;;;;;;;;5033444;28;20056;-77
2023/07/04 11:12:18;;;;;;;7.03;2.40;;;;;;;;;;5033103;28;20144;-77
2023/07/04 11:14:46;;;;;;;4.95;2.42;;;;;;;;;;5033071;28;20046;-77
2023/07/04 11:17:14;;;;;;;3.92;2.17;;;;;;;;;;5033138;28;20492;-77
2023/07/04 11:20:13;;;;;;;4.85;2.13;;;;;;;;;;5033592;28;20096;-78
2023/07/04 11:22:46;;;;;;;5.43;2.00;;;;;;;;;;5011023;28;20072;-78
2023/07/04 11:25:31;;;;;;;3.20;1.80;;;;;;;;;;5011250;28;20133;-77
2023/07/04 11:28:14;;;;;;;4.53;2.05;;;;;;;;;;5011053;28;20436;-77
2023/07/04 11:30:41;;;;;;;8.10;2.55;;;;;;;;;;5010891;28;20504;-78
2023/07/04 11:33:08;;;;;;;8.85;2.10;;;;;;;;;;5011383;28;20183;-77
2023/07/04 11:35:35;;;;;;;5.53;1.85;;;;;;;;;;5011241;28;20187;-78
2023/07/04 11:38:05;;;;;;;5.78;2.78;;;;;;;;;;5010883;28;20050;-77
2023/07/04 11:40:50;;;;;;;6.13;2.15;;;;;;;;;;5010981;28;20104;-77
2023/07/04 11:43:24;;;;;;;6.95;2.30;;;;;;;;;;5010697;28;20046;-77
2023/07/04 11:45:54;;;;;;;4.53;2.05;;;;;;;;;;5010724;28;20049;-77
2023/07/04 11:48:20;;;;;;;4.45;2.17;;;;;;;;;;5010815;28;20157;-77
2023/07/04 11:50:46;;;;;;;5.15;2.20;;;;;;;;;;5010832;28;20528;-79
2023/07/04 11:53:15;;;;;;;4.55;1.88;;;;;;;;;;5010431;28;20045;-79
2023/07/04 11:55:41;;;;;;;5.82;1.85;;;;;;;;;;5010741;28;20477;-78
2023/07/04 11:58:07;;;;;;;5.35;2.00;;;;;;;;;;5021191;28;20053;-79
2023/07/04 12:00:39;;;;;;;6.28;2.47;;;;;;;;;;5032867;28;20072;-78
2023/07/04 12:03:20;;;;;;;5.40;2.10;;;;;;;;;;5033038;28;20041;-77
2023/07/04 12:05:46;;;;;;;3.63;1.90;;;;;;;;;;5032849;28;20048;-77
2023/07/04 12:08:36;;;;;;;9.32;2.28;;;;;;;;;;5032968;28;20038;-78
2023/07/04 12:11:04;;;;;;;9.13;2.33;;;;;;;;;;5029644;28;20114;-79
2023/07/04 12:13:31;;;;;;;6.72;2.40;;;;;;;;;;5032685;28;20060;-77
2023/07/04 12:15:58;;;;;;;5.85;2.30;;;;;;;;;;5032636;28;20124;-78
2023/07/04 12:18:28;;;;;;;4.95;1.90;;;;;;;;;;5032660;28;20615;-77
2023/07/04 12:20:56;;;;;;;6.80;2.75;;;;;;;;;;5032708;28;20042;-77
2023/07/04 12:23:23;;;;;;;5.07;2.10;;;;;;;;;;5032821;28;20045;-77
2023/07/04 12:25:53;;;;;;;4.88;2.03;;;;;;;;;;5032576;28;20053;-77
2023/07/04 12:28:23;;;;;;;7.28;2.15;;;;;;;;;;5032480;28;20045;-77
2023/07/04 12:30:54;;;;;;;6.13;2.00;;;;;;;;;;5032462;28;20037;-78
2023/07/04 12:33:20;;;;;;;6.07;2.28;;;;;;;;;;5032378;28;20053;-77
2023/07/04 12:35:54;;;;;;;5.57;2.40;;;;;;;;;;5032301;28;20508;-77
2023/07/04 12:38:22;;;;;;;7.38;2.15;;;;;;;;;;5032359;28;20125;-77
2023/07/04 12:40:49;;;;;;;10.05;2.53;;;;;;;;;;5032137;28;20049;-77
2023/07/04 12:43:15;;;;;;;4.43;2.13;;;;;;;;;;5032407;28;20045;-77
2023/07/04 12:45:42;;;;;;;3.83;1.80;;;;;;;;;;5031931;28;20437;-77
2023/07/04 12:48:10;;;;;;;7.43;2.30;;;;;;;;;;5031897;28;20048;-79
2023/07/04 12:50:38;;;;;;;3.58;1.80;;;;;;;;;;5032214;28;20121;-77
2023/07/04 12:53:04;;;;;;;7.88;2.40;;;;;;;;;;5032435;28;20053;-77
2023/07/04 12:55:32;;;;;;;6.90;1.92;;;;;;;;;;5032225;28;20052;-77
2023/07/04 12:57:59;;;;;;;5.85;2.15;;;;;;;;;;5032197;28;20049;-77
2023/07/04 13:00:48;;;;;;;3.97;2.25;;;;;;;;;;5032751;28;20124;-78
2023/07/04 13:03:16;;;;;;;6.15;1.90;;;;;;;;;;5029080;28;20160;-78
2023/07/04 13:05:44;;;;;;;6.57;2.42;;;;;;;;;;5034783;28;20146;-78
2023/07/04 13:08:21;;;;;;;7.22;2.20;;;;;;;;;;5036009;28;20045;-77
2023/07/04 13:10:48;;;;;;;4.43;2.10;;;;;;;;;;5035670;28;20182;-78
2023/07/04 13:13:38;;;;;;;8.55;2.42;;;;;;;;;;5035732;28;20052;-77
2023/07/04 13:16:10;;;;;;;6.22;2.63;;;;;;;;;;5025309;28;20053;-77
2023/07/04 13:18:38;;;;;;;5.53;2.20;;;;;;;;;;5017196;28;20073;-77
2023/07/04 13:21:04;;;;;;;5.63;2.70;;;;;;;;;;5020110;28;20081;-77
2023/07/04 13:23:33;;;;;;;6.80;2.20;;;;;;;;;;5020931;28;20159;-77
2023/07/04 13:25:59;;;;;;;5.90;2.50;;;;;;;;;;5016779;28;20061;-77
2023/07/04 13:28:32;;;;;;;7.72;2.70;;;;;;;;;;5015814;28;20064;-77
2023/07/04 13:31:36;;;;;;;7.38;2.42;;;;;;;;;;5015493;28;20050;-77
2023/07/04 13:34:27;;;;;;;7.03;2.60;;;;;;;;;;4974198;28;20089;-78
2023/07/04 13:36:55;;;;;;;5.90;2.05;;;;;;;;;;4973919;28;20050;-79
2023/07/04 13:39:21;;;;;;;6.68;2.50;;;;;;;;;;4974225;28;20121;-78
2023/07/04 13:41:49;;;;;;;5.18;2.40;;;;;;;;;;4973882;28;20097;-78
2023/07/04 13:44:16;;;;;;;8.07;2.25;;;;;;;;;;4973666;28;20058;-78
2023/07/04 13:46:42;;;;;;;6.40;2.47;;;;;;;;;;4973725;28;20130;-78
2023/07/04 13:49:08;;;;;;;7.75;2.38;;;;;;;;;;4973807;28;20131;-78
2023/07/04 13:51:34;;;;;;;7.32;2.22;;;;;;;;;;4973922;28;20050;-77
2023/07/04 13:54:01;;;;;;;6.50;2.33;;;;;;;;;;4973999;28;20085;-77
2023/07/04 13:56:27;;;;;;;9.95;2.58;;;;;;;;;;4974015;28;20096;-77
2023/07/04 13:58:53;;;;;;;8.40;2.80;;;;;;;;;;4973922;28;20097;-77
2023/07/04 14:01:20;;;;;;;8.23;2.45;;;;;;;;;;4973418;28;20050;-78
2023/07/04 14:03:46;;;;;;;5.95;2.15;;;;;;;;;;4977519;28;20047;-77
2023/07/04 14:06:12;;;;;;;6.13;2.38;;;;;;;;;;5014578;28;20516;-77
2023/07/04 14:08:39;;;;;;;7.38;2.30;;;;;;;;;;5015310;28;20045;-78
2023/07/04 14:11:09;;;;;;;7.05;2.42;;;;;;;;;;5014909;28;20049;-77
2023/07/04 14:13:36;;;;;;;6.60;2.28;;;;;;;;;;5014598;28;20389;-76
2023/07/04 14:16:03;;;;;;;7.70;2.30;;;;;;;;;;5014060;28;20057;-76
2023/07/04 14:18:29;;;;;;;7.28;2.10;;;;;;;;;;5014879;28;20046;-76
2023/07/04 14:20:56;;;;;;;12.30;2.47;;;;;;;;;;5014875;28;20042;-76
2023/07/04 14:23:22;;;;;;;8.05;2.28;;;;;;;;;;5014785;28;20131;-76
2023/07/04 14:25:50;;;;;;;8.25;2.88;;;;;;;;;;5014425;28;20053;-76
2023/07/04 14:28:16;;;;;;;7.43;2.80;;;;;;;;;;5014970;28;20057;-76
2023/07/04 14:30:42;;;;;;;5.18;2.10;;;;;;;;;;5014269;28;20049;-76
2023/07/04 14:33:09;;;;;;;8.88;2.35;;;;;;;;;;5013173;28;20073;-76
2023/07/04 14:35:39;;;;;;;7.65;2.50;;;;;;;;;;5014092;28;20038;-76
2023/07/04 14:38:05;;;;;;;6.10;2.30;;;;;;;;;;5013805;28;20455;-76
2023/07/04 14:40:31;;;;;;;8.25;2.88;;;;;;;;;;5014284;28;20058;-76
2023/07/04 14:42:57;;;;;;;7.30;2.40;;;;;;;;;;5014523;28;20049;-76
2023/07/04 14:45:24;;;;;;;6.03;2.33;;;;;;;;;;5014157;28;20042;-76
2023/07/04 14:47:50;;;;;;;10.25;2.50;;;;;;;;;;5014185;28;20042;-77
2023/07/04 14:50:19;;;;;;;7.18;2.88;;;;;;;;;;5014004;28;20088;-77
2023/07/04 14:52:45;;;;;;;9.95;2.33;;;;;;;;;;5014410;28;20152;-77